PWSweather.com
Personal Weather Stations
Station Observations

SkegnessGB

Lat: 53.147585, Lon: 0.345774

Elevation: 18

Station Type: Fine Offset WH3080

http://www.skegnessweather.info/

High Low Average
Temperature 43.2°F6.2°C 30.7°F-0.7°C 36.2°F2.3°C
Dew Point 35.6°F2.0°C 25.9°F-3.4°C 30.9°F-0.6°C
Winds 3.9 mph 6.3 kmh Calm Calm 2.0 mph SW3.2 kmh SW
Wind Gusts 5.9 mph9.5 kmh -- 3.0 mph4.8 kmh
Humidity 87% 74% 81%
Pressure 30.37 in1028.4 mb 30.31 in1026.4 mb -
Precipitation 0.00 in0.0 mm - -
Hour Temp Dew Point Humidity Winds Wind Gusts Pressure Precip Precip Rate Daily Precip Total
12:00 AM 33.4°F0.8°C 28.5°F-1.9°C 82% 0.5 mph SW0.8 kmh SW 1.7 mph2.7 kmh 30.32 in1026.8 mb 0.00 in0.0 mm 0.00 in0.0 mm 0.00 in0.0 mm
12:10 AM 33.1°F0.6°C 28.2°F-2.1°C 82% 0.9 mph SW1.4 kmh SW 2.5 mph4.0 kmh 30.32 in1026.8 mb 0.00 in0.0 mm 0.00 in0.0 mm 0.00 in0.0 mm
12:20 AM 32.9°F0.5°C 28.0°F-2.2°C 82% 1.1 mph SW1.8 kmh SW 2.5 mph4.0 kmh 30.31 in1026.4 mb 0.00 in0.0 mm 0.00 in0.0 mm 0.00 in0.0 mm
12:30 AM 32.7°F0.4°C 27.8°F-2.3°C 82% 1.2 mph SW1.9 kmh SW 2.5 mph4.0 kmh 30.32 in1026.8 mb 0.00 in0.0 mm 0.00 in0.0 mm 0.00 in0.0 mm
12:40 AM 32.5°F0.3°C 27.7°F-2.4°C 82% 0.3 mph W0.5 kmh W 1.7 mph2.7 kmh 30.32 in1026.8 mb 0.00 in0.0 mm 0.00 in0.0 mm 0.00 in0.0 mm
12:50 AM 32.5°F0.3°C 27.7°F-2.4°C 82% 1.1 mph SW1.8 kmh SW 2.5 mph4.0 kmh 30.32 in1026.8 mb 0.00 in0.0 mm 0.00 in0.0 mm 0.00 in0.0 mm
01:00 AM 32.5°F0.3°C 27.7°F-2.4°C 82% 1.0 mph SW1.6 kmh SW 1.7 mph2.7 kmh 30.32 in1026.8 mb 0.00 in0.0 mm 0.00 in0.0 mm 0.00 in0.0 mm
01:10 AM 32.4°F0.2°C 27.5°F-2.5°C 82% 0.3 mph WSW0.5 kmh WSW 2.5 mph4.0 kmh 30.32 in1026.8 mb 0.00 in0.0 mm 0.00 in0.0 mm 0.00 in0.0 mm
01:20 AM 32.0°F0.0°C 27.1°F-2.7°C 82% 1.7 mph SW2.7 kmh SW 3.4 mph5.5 kmh 30.32 in1026.8 mb 0.00 in0.0 mm 0.00 in0.0 mm 0.00 in0.0 mm
01:30 AM 31.8°F-0.1°C 27.0°F-2.8°C 82% 1.2 mph SW1.9 kmh SW 1.7 mph2.7 kmh 30.32 in1026.8 mb 0.00 in0.0 mm 0.00 in0.0 mm 0.00 in0.0 mm
01:40 AM 31.6°F-0.2°C 26.8°F-2.9°C 82% 1.2 mph S1.9 kmh S 2.5 mph4.0 kmh 30.33 in1027.1 mb 0.00 in0.0 mm 0.00 in0.0 mm 0.00 in0.0 mm
01:50 AM 31.5°F-0.3°C 26.6°F-3.0°C 82% 0.6 mph SW1.0 kmh SW 1.7 mph2.7 kmh 30.32 in1026.8 mb 0.00 in0.0 mm 0.00 in0.0 mm 0.00 in0.0 mm
02:00 AM 31.3°F-0.4°C 26.4°F-3.1°C 82% 0.7 mph SW1.1 kmh SW 1.7 mph2.7 kmh 30.33 in1027.1 mb 0.00 in0.0 mm 0.00 in0.0 mm 0.00 in0.0 mm
02:10 AM 31.3°F-0.4°C 26.4°F-3.1°C 82% 0.4 mph SW0.6 kmh SW 1.7 mph2.7 kmh 30.33 in1027.1 mb 0.00 in0.0 mm 0.00 in0.0 mm 0.00 in0.0 mm
02:20 AM 31.3°F-0.4°C 26.4°F-3.1°C 82% Calm Calm 1.7 mph2.7 kmh 30.33 in1027.1 mb 0.00 in0.0 mm 0.00 in0.0 mm 0.00 in0.0 mm
02:30 AM 31.3°F-0.4°C 26.4°F-3.1°C 82% 0.7 mph SW1.1 kmh SW 1.7 mph2.7 kmh 30.33 in1027.1 mb 0.00 in0.0 mm 0.00 in0.0 mm 0.00 in0.0 mm
02:40 AM 31.3°F-0.4°C 26.4°F-3.1°C 82% 0.1 mph SSE0.2 kmh SSE 1.7 mph2.7 kmh 30.33 in1027.1 mb 0.00 in0.0 mm 0.00 in0.0 mm 0.00 in0.0 mm
02:50 AM 31.3°F-0.4°C 26.4°F-3.1°C 82% 0.4 mph SW0.6 kmh SW 1.7 mph2.7 kmh 30.33 in1027.1 mb 0.00 in0.0 mm 0.00 in0.0 mm 0.00 in0.0 mm
03:00 AM 31.3°F-0.4°C 26.4°F-3.1°C 82% 0.3 mph S0.5 kmh S 1.7 mph2.7 kmh 30.33 in1027.1 mb 0.00 in0.0 mm 0.00 in0.0 mm 0.00 in0.0 mm
03:10 AM 31.1°F-0.5°C 26.2°F-3.2°C 82% Calm Calm -- 30.33 in1027.1 mb 0.00 in0.0 mm 0.00 in0.0 mm 0.00 in0.0 mm
03:20 AM 30.7°F-0.7°C 25.9°F-3.4°C 82% Calm Calm 0.7 mph1.1 kmh 30.33 in1027.1 mb 0.00 in0.0 mm 0.00 in0.0 mm 0.00 in0.0 mm
03:30 AM 30.7°F-0.7°C 25.9°F-3.4°C 82% Calm Calm 0.7 mph1.1 kmh 30.32 in1026.8 mb 0.00 in0.0 mm 0.00 in0.0 mm 0.00 in0.0 mm
03:40 AM 30.9°F-0.6°C 26.4°F-3.1°C 83% 0.2 mph SW0.3 kmh SW 1.7 mph2.7 kmh 30.32 in1026.8 mb 0.00 in0.0 mm 0.00 in0.0 mm 0.00 in0.0 mm
03:50 AM 31.1°F-0.5°C 26.5°F-3.1°C 83% 0.5 mph SW0.8 kmh SW 1.7 mph2.7 kmh 30.32 in1026.8 mb 0.00 in0.0 mm 0.00 in0.0 mm 0.00 in0.0 mm
04:00 AM 31.1°F-0.5°C 26.5°F-3.1°C 83% 0.3 mph SW0.5 kmh SW 1.7 mph2.7 kmh 30.32 in1026.8 mb 0.00 in0.0 mm 0.00 in0.0 mm 0.00 in0.0 mm
04:10 AM 31.1°F-0.5°C 26.5°F-3.1°C 83% Calm Calm 1.7 mph2.7 kmh 30.32 in1026.8 mb 0.00 in0.0 mm 0.00 in0.0 mm 0.00 in0.0 mm
04:20 AM 31.1°F-0.5°C 26.5°F-3.1°C 83% 0.4 mph SW0.6 kmh SW 1.7 mph2.7 kmh 30.33 in1027.1 mb 0.00 in0.0 mm 0.00 in0.0 mm 0.00 in0.0 mm
04:30 AM 31.1°F-0.5°C 26.5°F-3.1°C 83% 0.6 mph SW1.0 kmh SW 1.7 mph2.7 kmh 30.32 in1026.8 mb 0.00 in0.0 mm 0.00 in0.0 mm 0.00 in0.0 mm
04:40 AM 31.3°F-0.4°C 26.7°F-2.9°C 83% 1.0 mph SW1.6 kmh SW 2.5 mph4.0 kmh 30.32 in1026.8 mb 0.00 in0.0 mm 0.00 in0.0 mm 0.00 in0.0 mm
04:50 AM 31.3°F-0.4°C 26.7°F-2.9°C 83% 1.3 mph SW2.1 kmh SW 2.5 mph4.0 kmh 30.32 in1026.8 mb 0.00 in0.0 mm 0.00 in0.0 mm 0.00 in0.0 mm
05:00 AM 31.3°F-0.4°C 26.7°F-2.9°C 83% 1.9 mph SW3.1 kmh SW 3.4 mph5.5 kmh 30.32 in1026.8 mb 0.00 in0.0 mm 0.00 in0.0 mm 0.00 in0.0 mm
05:10 AM 31.6°F-0.2°C 27.1°F-2.7°C 83% 2.7 mph SSW4.3 kmh SSW 2.5 mph4.0 kmh 30.32 in1026.8 mb 0.00 in0.0 mm 0.00 in0.0 mm 0.00 in0.0 mm
05:20 AM 31.6°F-0.2°C 27.1°F-2.7°C 83% 1.0 mph SW1.6 kmh SW 1.7 mph2.7 kmh 30.32 in1026.8 mb 0.00 in0.0 mm 0.00 in0.0 mm 0.00 in0.0 mm
05:30 AM 31.8°F-0.1°C 27.2°F-2.7°C 83% 1.3 mph SW2.1 kmh SW 2.5 mph4.0 kmh 30.32 in1026.8 mb 0.00 in0.0 mm 0.00 in0.0 mm 0.00 in0.0 mm
05:40 AM 31.8°F-0.1°C 27.2°F-2.7°C 83% 2.2 mph SW3.5 kmh SW 2.5 mph4.0 kmh 30.32 in1026.8 mb 0.00 in0.0 mm 0.00 in0.0 mm 0.00 in0.0 mm
05:50 AM 31.8°F-0.1°C 27.5°F-2.5°C 84% 2.2 mph W3.5 kmh W 3.4 mph5.5 kmh 30.32 in1026.8 mb 0.00 in0.0 mm 0.00 in0.0 mm 0.00 in0.0 mm
06:00 AM 31.8°F-0.1°C 27.5°F-2.5°C 84% 2.4 mph W3.9 kmh W 2.5 mph4.0 kmh 30.33 in1027.1 mb 0.00 in0.0 mm 0.00 in0.0 mm 0.00 in0.0 mm
06:10 AM 31.8°F-0.1°C 27.2°F-2.7°C 83% 1.9 mph SW3.1 kmh SW 3.4 mph5.5 kmh 30.33 in1027.1 mb 0.00 in0.0 mm 0.00 in0.0 mm 0.00 in0.0 mm
06:20 AM 32.0°F0.0°C 27.4°F-2.6°C 83% 2.1 mph SSW3.4 kmh SSW 3.4 mph5.5 kmh 30.33 in1027.1 mb 0.00 in0.0 mm 0.00 in0.0 mm 0.00 in0.0 mm
06:30 AM 32.2°F0.1°C 27.6°F-2.4°C 83% 2.0 mph SW3.2 kmh SW 3.4 mph5.5 kmh 30.33 in1027.1 mb 0.00 in0.0 mm 0.00 in0.0 mm 0.00 in0.0 mm
06:40 AM 32.4°F0.2°C 27.8°F-2.3°C 83% 1.5 mph SW2.4 kmh SW 2.5 mph4.0 kmh 30.33 in1027.1 mb 0.00 in0.0 mm 0.00 in0.0 mm 0.00 in0.0 mm
06:50 AM 32.4°F0.2°C 27.8°F-2.3°C 83% 2.7 mph SW4.3 kmh SW 3.4 mph5.5 kmh 30.33 in1027.1 mb 0.00 in0.0 mm 0.00 in0.0 mm 0.00 in0.0 mm
07:00 AM 32.4°F0.2°C 27.8°F-2.3°C 83% 2.5 mph SW4.0 kmh SW 2.5 mph4.0 kmh 30.33 in1027.1 mb 0.00 in0.0 mm 0.00 in0.0 mm 0.00 in0.0 mm
07:10 AM 32.2°F0.1°C 27.6°F-2.4°C 83% 3.4 mph SE5.5 kmh SE 4.2 mph6.8 kmh 30.32 in1026.8 mb 0.00 in0.0 mm 0.00 in0.0 mm 0.00 in0.0 mm
07:20 AM 32.0°F0.0°C 27.4°F-2.6°C 83% 2.8 mph SW4.5 kmh SW 4.2 mph6.8 kmh 30.32 in1026.8 mb 0.00 in0.0 mm 0.00 in0.0 mm 0.00 in0.0 mm
07:30 AM 32.2°F0.1°C 27.3°F-2.6°C 82% 2.5 mph SSW4.0 kmh SSW 3.4 mph5.5 kmh 30.33 in1027.1 mb 0.00 in0.0 mm 0.00 in0.0 mm 0.00 in0.0 mm
07:40 AM 32.2°F0.1°C 27.3°F-2.6°C 82% 1.8 mph S2.9 kmh S 2.5 mph4.0 kmh 30.34 in1027.4 mb 0.00 in0.0 mm 0.00 in0.0 mm 0.00 in0.0 mm
07:50 AM 32.0°F0.0°C 27.1°F-2.7°C 82% 2.4 mph SW3.9 kmh SW 3.4 mph5.5 kmh 30.34 in1027.4 mb 0.00 in0.0 mm 0.00 in0.0 mm 0.00 in0.0 mm
08:00 AM 32.0°F0.0°C 27.1°F-2.7°C 82% 1.2 mph SSW1.9 kmh SSW 2.5 mph4.0 kmh 30.34 in1027.4 mb 0.00 in0.0 mm 0.00 in0.0 mm 0.00 in0.0 mm
08:10 AM 32.0°F0.0°C 27.1°F-2.7°C 82% 1.4 mph SW2.3 kmh SW 2.5 mph4.0 kmh 30.34 in1027.4 mb 0.00 in0.0 mm 0.00 in0.0 mm 0.00 in0.0 mm
08:20 AM 32.0°F0.0°C 27.1°F-2.7°C 82% 1.2 mph SW1.9 kmh SW 2.5 mph4.0 kmh 30.34 in1027.4 mb 0.00 in0.0 mm 0.00 in0.0 mm 0.00 in0.0 mm
08:30 AM 32.2°F0.1°C 27.3°F-2.6°C 82% 2.2 mph W3.5 kmh W 3.4 mph5.5 kmh 30.34 in1027.4 mb 0.00 in0.0 mm 0.00 in0.0 mm 0.00 in0.0 mm
08:40 AM 32.4°F0.2°C 27.2°F-2.7°C 81% 1.5 mph SW2.4 kmh SW 3.4 mph5.5 kmh 30.34 in1027.4 mb 0.00 in0.0 mm 0.00 in0.0 mm 0.00 in0.0 mm
08:50 AM 32.5°F0.3°C 27.4°F-2.6°C 81% 0.6 mph SW1.0 kmh SW 2.5 mph4.0 kmh 30.35 in1027.8 mb 0.00 in0.0 mm 0.00 in0.0 mm 0.00 in0.0 mm
09:00 AM 32.7°F0.4°C 27.5°F-2.5°C 81% 1.9 mph SW3.1 kmh SW 4.2 mph6.8 kmh 30.35 in1027.8 mb 0.00 in0.0 mm 0.00 in0.0 mm 0.00 in0.0 mm
09:10 AM 33.1°F0.6°C 27.9°F-2.3°C 81% 2.9 mph WSW4.7 kmh WSW 3.4 mph5.5 kmh 30.35 in1027.8 mb 0.00 in0.0 mm 0.00 in0.0 mm 0.00 in0.0 mm
09:20 AM 33.4°F0.8°C 28.2°F-2.1°C 81% 1.9 mph SW3.1 kmh SW 2.5 mph4.0 kmh 30.35 in1027.8 mb 0.00 in0.0 mm 0.00 in0.0 mm 0.00 in0.0 mm
09:30 AM 33.6°F0.9°C 28.4°F-2.0°C 81% 2.3 mph SW3.7 kmh SW 3.4 mph5.5 kmh 30.35 in1027.8 mb 0.00 in0.0 mm 0.00 in0.0 mm 0.00 in0.0 mm
09:40 AM 34.0°F1.1°C 28.8°F-1.8°C 81% 2.8 mph SW4.5 kmh SW 4.2 mph6.8 kmh 30.35 in1027.8 mb 0.00 in0.0 mm 0.00 in0.0 mm 0.00 in0.0 mm
09:50 AM 35.1°F1.7°C 30.1°F-1.1°C 82% 2.7 mph WSW4.3 kmh WSW 3.4 mph5.5 kmh 30.36 in1028.1 mb 0.00 in0.0 mm 0.00 in0.0 mm 0.00 in0.0 mm
10:00 AM 36.0°F2.2°C 31.0°F-0.6°C 82% 3.2 mph SW5.1 kmh SW 4.2 mph6.8 kmh 30.36 in1028.1 mb 0.00 in0.0 mm 0.00 in0.0 mm 0.00 in0.0 mm
10:10 AM 36.9°F2.7°C 31.9°F-0.1°C 82% 3.2 mph SW5.1 kmh SW 4.2 mph6.8 kmh 30.36 in1028.1 mb 0.00 in0.0 mm 0.00 in0.0 mm 0.00 in0.0 mm
10:20 AM 37.4°F3.0°C 32.1°F0.1°C 81% 3.0 mph WSW4.8 kmh WSW 4.2 mph6.8 kmh 30.36 in1028.1 mb 0.00 in0.0 mm 0.00 in0.0 mm 0.00 in0.0 mm
10:30 AM 37.9°F3.3°C 32.3°F0.2°C 80% 3.7 mph WSW6.0 kmh WSW 4.2 mph6.8 kmh 30.37 in1028.4 mb 0.00 in0.0 mm 0.00 in0.0 mm 0.00 in0.0 mm
10:40 AM 38.5°F3.6°C 32.8°F0.4°C 80% 3.3 mph SW5.3 kmh SW 4.2 mph6.8 kmh 30.37 in1028.4 mb 0.00 in0.0 mm 0.00 in0.0 mm 0.00 in0.0 mm
10:50 AM 39.0°F3.9°C 33.1°F0.6°C 79% 3.8 mph SW6.1 kmh SW 4.9 mph7.9 kmh 30.36 in1028.1 mb 0.00 in0.0 mm 0.00 in0.0 mm 0.00 in0.0 mm
11:00 AM 39.4°F4.1°C 32.8°F0.4°C 77% 2.9 mph WSW4.7 kmh WSW 4.2 mph6.8 kmh 30.35 in1027.8 mb 0.00 in0.0 mm 0.00 in0.0 mm 0.00 in0.0 mm
11:10 AM 39.9°F4.4°C 33.3°F0.7°C 77% 2.7 mph SSE4.3 kmh SSE 2.5 mph4.0 kmh 30.36 in1028.1 mb 0.00 in0.0 mm 0.00 in0.0 mm 0.00 in0.0 mm
11:20 AM 40.1°F4.5°C 33.1°F0.6°C 76% 3.5 mph W5.6 kmh W 4.2 mph6.8 kmh 30.36 in1028.1 mb 0.00 in0.0 mm 0.00 in0.0 mm 0.00 in0.0 mm
11:30 AM 40.1°F4.5°C 32.8°F0.4°C 75% 2.8 mph WSW4.5 kmh WSW 3.4 mph5.5 kmh 30.36 in1028.1 mb 0.00 in0.0 mm 0.00 in0.0 mm 0.00 in0.0 mm
11:40 AM 40.6°F4.8°C 33.7°F0.9°C 76% 1.9 mph WSW3.1 kmh WSW 2.5 mph4.0 kmh 30.35 in1027.8 mb 0.00 in0.0 mm 0.00 in0.0 mm 0.00 in0.0 mm
11:50 AM 41.2°F5.1°C 34.2°F1.2°C 76% 2.2 mph WSW3.5 kmh WSW 5.9 mph9.5 kmh 30.36 in1028.1 mb 0.00 in0.0 mm 0.00 in0.0 mm 0.00 in0.0 mm
12:00 PM 41.7°F5.4°C 34.7°F1.5°C 76% 2.2 mph SW3.5 kmh SW 3.4 mph5.5 kmh 30.35 in1027.8 mb 0.00 in0.0 mm 0.00 in0.0 mm 0.00 in0.0 mm
12:10 PM 42.1°F5.6°C 34.7°F1.5°C 75% 2.7 mph NW4.3 kmh NW 4.2 mph6.8 kmh 30.35 in1027.8 mb 0.00 in0.0 mm 0.00 in0.0 mm 0.00 in0.0 mm
12:20 PM 42.3°F5.7°C 34.9°F1.6°C 75% 2.1 mph SSW3.4 kmh SSW 4.2 mph6.8 kmh 30.35 in1027.8 mb 0.00 in0.0 mm 0.00 in0.0 mm 0.00 in0.0 mm
12:30 PM 42.6°F5.9°C 35.2°F1.8°C 75% 1.3 mph SW2.1 kmh SW 2.5 mph4.0 kmh 30.35 in1027.8 mb 0.00 in0.0 mm 0.00 in0.0 mm 0.00 in0.0 mm
12:40 PM 42.8°F6.0°C 35.4°F1.9°C 75% 1.3 mph SSW2.1 kmh SSW 3.4 mph5.5 kmh 30.35 in1027.8 mb 0.00 in0.0 mm 0.00 in0.0 mm 0.00 in0.0 mm
12:50 PM 43.0°F6.1°C 35.6°F2.0°C 75% 2.2 mph SSW3.5 kmh SSW 3.4 mph5.5 kmh 30.35 in1027.8 mb 0.00 in0.0 mm 0.00 in0.0 mm 0.00 in0.0 mm
01:00 PM 43.0°F6.1°C 35.3°F1.8°C 74% 1.7 mph WSW2.7 kmh WSW 2.5 mph4.0 kmh 30.35 in1027.8 mb 0.00 in0.0 mm 0.00 in0.0 mm 0.00 in0.0 mm
01:10 PM 43.2°F6.2°C 35.4°F1.9°C 74% 2.9 mph WSW4.7 kmh WSW 3.4 mph5.5 kmh 30.35 in1027.8 mb 0.00 in0.0 mm 0.00 in0.0 mm 0.00 in0.0 mm
01:20 PM 43.2°F6.2°C 35.4°F1.9°C 74% 1.5 mph SSE2.4 kmh SSE 3.4 mph5.5 kmh 30.35 in1027.8 mb 0.00 in0.0 mm 0.00 in0.0 mm 0.00 in0.0 mm
01:30 PM 43.2°F6.2°C 35.4°F1.9°C 74% 1.1 mph S1.8 kmh S 2.5 mph4.0 kmh 30.36 in1028.1 mb 0.00 in0.0 mm 0.00 in0.0 mm 0.00 in0.0 mm
01:40 PM 43.2°F6.2°C 35.4°F1.9°C 74% 2.2 mph SW3.5 kmh SW 3.4 mph5.5 kmh 30.35 in1027.8 mb 0.00 in0.0 mm 0.00 in0.0 mm 0.00 in0.0 mm
01:50 PM 43.0°F6.1°C 35.3°F1.8°C 74% 1.5 mph SSW2.4 kmh SSW 2.5 mph4.0 kmh 30.35 in1027.8 mb 0.00 in0.0 mm 0.00 in0.0 mm 0.00 in0.0 mm
02:00 PM 43.0°F6.1°C 35.3°F1.8°C 74% 2.5 mph W4.0 kmh W 4.9 mph7.9 kmh 30.35 in1027.8 mb 0.00 in0.0 mm 0.00 in0.0 mm 0.00 in0.0 mm
02:10 PM 42.8°F6.0°C 35.4°F1.9°C 75% 2.2 mph W3.5 kmh W 4.2 mph6.8 kmh 30.35 in1027.8 mb 0.00 in0.0 mm 0.00 in0.0 mm 0.00 in0.0 mm
02:20 PM 42.6°F5.9°C 35.2°F1.8°C 75% 1.7 mph W2.7 kmh W 4.2 mph6.8 kmh 30.35 in1027.8 mb 0.00 in0.0 mm 0.00 in0.0 mm 0.00 in0.0 mm
02:30 PM 42.4°F5.8°C 35.1°F1.7°C 75% 1.8 mph WSW2.9 kmh WSW 3.4 mph5.5 kmh 30.35 in1027.8 mb 0.00 in0.0 mm 0.00 in0.0 mm 0.00 in0.0 mm
02:40 PM 42.3°F5.7°C 34.9°F1.6°C 75% 2.7 mph WSW4.3 kmh WSW 4.2 mph6.8 kmh 30.35 in1027.8 mb 0.00 in0.0 mm 0.00 in0.0 mm 0.00 in0.0 mm
02:50 PM 41.9°F5.5°C 34.9°F1.6°C 76% 1.4 mph WSW2.3 kmh WSW 2.5 mph4.0 kmh 30.35 in1027.8 mb 0.00 in0.0 mm 0.00 in0.0 mm 0.00 in0.0 mm
03:00 PM 41.7°F5.4°C 34.7°F1.5°C 76% 1.1 mph SSW1.8 kmh SSW 2.5 mph4.0 kmh 30.35 in1027.8 mb 0.00 in0.0 mm 0.00 in0.0 mm 0.00 in0.0 mm
03:10 PM 41.2°F5.1°C 34.2°F1.2°C 76% 1.6 mph WSW2.6 kmh WSW 4.2 mph6.8 kmh 30.35 in1027.8 mb 0.00 in0.0 mm 0.00 in0.0 mm 0.00 in0.0 mm
03:20 PM 40.8°F4.9°C 33.8°F1.0°C 76% 2.3 mph SW3.7 kmh SW 4.2 mph6.8 kmh 30.36 in1028.1 mb 0.00 in0.0 mm 0.00 in0.0 mm 0.00 in0.0 mm
03:30 PM 40.3°F4.6°C 33.3°F0.7°C 76% 1.8 mph WSW2.9 kmh WSW 2.5 mph4.0 kmh 30.35 in1027.8 mb 0.00 in0.0 mm 0.00 in0.0 mm 0.00 in0.0 mm
03:40 PM 39.9°F4.4°C 33.3°F0.7°C 77% 0.9 mph S1.4 kmh S 1.7 mph2.7 kmh 30.36 in1028.1 mb 0.00 in0.0 mm 0.00 in0.0 mm 0.00 in0.0 mm
03:50 PM 39.4°F4.1°C 32.8°F0.4°C 77% 0.6 mph SW1.0 kmh SW 2.5 mph4.0 kmh 30.35 in1027.8 mb 0.00 in0.0 mm 0.00 in0.0 mm 0.00 in0.0 mm
04:00 PM 39.0°F3.9°C 32.7°F0.4°C 78% 0.7 mph SSW1.1 kmh SSW 2.5 mph4.0 kmh 30.36 in1028.1 mb 0.00 in0.0 mm 0.00 in0.0 mm 0.00 in0.0 mm
04:10 PM 38.7°F3.7°C 32.7°F0.4°C 79% 1.3 mph SW2.1 kmh SW 3.4 mph5.5 kmh 30.36 in1028.1 mb 0.00 in0.0 mm 0.00 in0.0 mm 0.00 in0.0 mm
04:20 PM 38.3°F3.5°C 32.4°F0.2°C 79% 1.3 mph SW2.1 kmh SW 2.5 mph4.0 kmh 30.35 in1027.8 mb 0.00 in0.0 mm 0.00 in0.0 mm 0.00 in0.0 mm
04:30 PM 38.1°F3.4°C 32.5°F0.3°C 80% 1.6 mph WSW2.6 kmh WSW 2.5 mph4.0 kmh 30.35 in1027.8 mb 0.00 in0.0 mm 0.00 in0.0 mm 0.00 in0.0 mm
04:40 PM 37.6°F3.1°C 32.0°F0.0°C 80% 1.2 mph SW1.9 kmh SW 2.5 mph4.0 kmh 30.35 in1027.8 mb 0.00 in0.0 mm 0.00 in0.0 mm 0.00 in0.0 mm
04:50 PM 37.2°F2.9°C 31.6°F-0.2°C 80% 2.0 mph WSW3.2 kmh WSW 3.4 mph5.5 kmh 30.35 in1027.8 mb 0.00 in0.0 mm 0.00 in0.0 mm 0.00 in0.0 mm
05:00 PM 37.0°F2.8°C 31.4°F-0.3°C 80% 2.1 mph SW3.4 kmh SW 3.4 mph5.5 kmh 30.35 in1027.8 mb 0.00 in0.0 mm 0.00 in0.0 mm 0.00 in0.0 mm
05:10 PM 36.5°F2.5°C 30.9°F-0.6°C 80% 1.4 mph SE2.3 kmh SE 3.4 mph5.5 kmh 30.35 in1027.8 mb 0.00 in0.0 mm 0.00 in0.0 mm 0.00 in0.0 mm
05:20 PM 36.3°F2.4°C 30.7°F-0.7°C 80% 1.6 mph SW2.6 kmh SW 2.5 mph4.0 kmh 30.35 in1027.8 mb 0.00 in0.0 mm 0.00 in0.0 mm 0.00 in0.0 mm
05:30 PM 36.3°F2.4°C 31.0°F-0.6°C 81% 2.0 mph SSW3.2 kmh SSW 2.5 mph4.0 kmh 30.35 in1027.8 mb 0.00 in0.0 mm 0.00 in0.0 mm 0.00 in0.0 mm
05:40 PM 36.5°F2.5°C 31.2°F-0.4°C 81% 1.5 mph SW2.4 kmh SW 2.5 mph4.0 kmh 30.35 in1027.8 mb 0.00 in0.0 mm 0.00 in0.0 mm 0.00 in0.0 mm
05:50 PM 36.7°F2.6°C 31.4°F-0.3°C 81% 2.2 mph SSW3.5 kmh SSW 2.5 mph4.0 kmh 30.36 in1028.1 mb 0.00 in0.0 mm 0.00 in0.0 mm 0.00 in0.0 mm
06:00 PM 37.0°F2.8°C 32.1°F0.1°C 82% 1.9 mph SSW3.1 kmh SSW 2.5 mph4.0 kmh 30.35 in1027.8 mb 0.00 in0.0 mm 0.00 in0.0 mm 0.00 in0.0 mm
06:10 PM 37.2°F2.9°C 32.2°F0.1°C 82% 1.4 mph SW2.3 kmh SW 2.5 mph4.0 kmh 30.36 in1028.1 mb 0.00 in0.0 mm 0.00 in0.0 mm 0.00 in0.0 mm
06:20 PM 37.2°F2.9°C 32.2°F0.1°C 82% 1.2 mph SW1.9 kmh SW 2.5 mph4.0 kmh 30.35 in1027.8 mb 0.00 in0.0 mm 0.00 in0.0 mm 0.00 in0.0 mm
06:30 PM 37.4°F3.0°C 32.7°F0.4°C 83% 1.4 mph S2.3 kmh S 2.5 mph4.0 kmh 30.35 in1027.8 mb 0.00 in0.0 mm 0.00 in0.0 mm 0.00 in0.0 mm
06:40 PM 37.4°F3.0°C 32.7°F0.4°C 83% 2.5 mph SW4.0 kmh SW 3.4 mph5.5 kmh 30.35 in1027.8 mb 0.00 in0.0 mm 0.00 in0.0 mm 0.00 in0.0 mm
06:50 PM 37.4°F3.0°C 32.7°F0.4°C 83% 1.5 mph SW2.4 kmh SW 2.5 mph4.0 kmh 30.35 in1027.8 mb 0.00 in0.0 mm 0.00 in0.0 mm 0.00 in0.0 mm
07:00 PM 37.6°F3.1°C 32.9°F0.5°C 83% 1.4 mph S2.3 kmh S 2.5 mph4.0 kmh 30.36 in1028.1 mb 0.00 in0.0 mm 0.00 in0.0 mm 0.00 in0.0 mm
07:10 PM 37.6°F3.1°C 32.9°F0.5°C 83% 2.5 mph SW4.0 kmh SW 2.5 mph4.0 kmh 30.36 in1028.1 mb 0.00 in0.0 mm 0.00 in0.0 mm 0.00 in0.0 mm
07:20 PM 37.6°F3.1°C 32.9°F0.5°C 83% 1.7 mph SW2.7 kmh SW 2.5 mph4.0 kmh 30.36 in1028.1 mb 0.00 in0.0 mm 0.00 in0.0 mm 0.00 in0.0 mm
07:30 PM 37.6°F3.1°C 33.2°F0.7°C 84% 1.7 mph SW2.7 kmh SW 2.5 mph4.0 kmh 30.36 in1028.1 mb 0.00 in0.0 mm 0.00 in0.0 mm 0.00 in0.0 mm
07:40 PM 37.6°F3.1°C 33.2°F0.7°C 84% 1.0 mph SSW1.6 kmh SSW 1.7 mph2.7 kmh 30.35 in1027.8 mb 0.00 in0.0 mm 0.00 in0.0 mm 0.00 in0.0 mm
07:50 PM 37.6°F3.1°C 33.2°F0.7°C 84% 0.4 mph SW0.6 kmh SW 1.7 mph2.7 kmh 30.36 in1028.1 mb 0.00 in0.0 mm 0.00 in0.0 mm 0.00 in0.0 mm
08:00 PM 37.6°F3.1°C 33.2°F0.7°C 84% 1.1 mph WSW1.8 kmh WSW 3.4 mph5.5 kmh 30.36 in1028.1 mb 0.00 in0.0 mm 0.00 in0.0 mm 0.00 in0.0 mm
08:10 PM 37.6°F3.1°C 33.2°F0.7°C 84% 1.5 mph WSW2.4 kmh WSW 3.4 mph5.5 kmh 30.36 in1028.1 mb 0.00 in0.0 mm 0.00 in0.0 mm 0.00 in0.0 mm
08:20 PM 37.6°F3.1°C 33.2°F0.7°C 84% 0.9 mph SW1.4 kmh SW 1.7 mph2.7 kmh 30.36 in1028.1 mb 0.00 in0.0 mm 0.00 in0.0 mm 0.00 in0.0 mm
08:30 PM 37.8°F3.2°C 33.4°F0.8°C 84% 1.9 mph SSW3.1 kmh SSW 3.4 mph5.5 kmh 30.35 in1027.8 mb 0.00 in0.0 mm 0.00 in0.0 mm 0.00 in0.0 mm
08:40 PM 37.8°F3.2°C 33.7°F0.9°C 85% 1.2 mph S1.9 kmh S 2.5 mph4.0 kmh 30.35 in1027.8 mb 0.00 in0.0 mm 0.00 in0.0 mm 0.00 in0.0 mm
08:50 PM 37.9°F3.3°C 33.8°F1.0°C 85% 1.5 mph SW2.4 kmh SW 2.5 mph4.0 kmh 30.35 in1027.8 mb 0.00 in0.0 mm 0.00 in0.0 mm 0.00 in0.0 mm
09:00 PM 37.9°F3.3°C 33.8°F1.0°C 85% 1.0 mph SW1.6 kmh SW 2.5 mph4.0 kmh 30.35 in1027.8 mb 0.00 in0.0 mm 0.00 in0.0 mm 0.00 in0.0 mm
09:10 PM 37.8°F3.2°C 33.7°F0.9°C 85% 0.4 mph S0.6 kmh S 2.5 mph4.0 kmh 30.35 in1027.8 mb 0.00 in0.0 mm 0.00 in0.0 mm 0.00 in0.0 mm
09:20 PM 37.8°F3.2°C 33.7°F0.9°C 85% 1.4 mph SW2.3 kmh SW 2.5 mph4.0 kmh 30.35 in1027.8 mb 0.00 in0.0 mm 0.00 in0.0 mm 0.00 in0.0 mm
09:30 PM 37.9°F3.3°C 33.8°F1.0°C 85% 1.3 mph SSW2.1 kmh SSW 2.5 mph4.0 kmh 30.35 in1027.8 mb 0.00 in0.0 mm 0.00 in0.0 mm 0.00 in0.0 mm
09:40 PM 37.9°F3.3°C 33.8°F1.0°C 85% 1.7 mph SW2.7 kmh SW 2.5 mph4.0 kmh 30.35 in1027.8 mb 0.00 in0.0 mm 0.00 in0.0 mm 0.00 in0.0 mm
09:50 PM 38.1°F3.4°C 34.0°F1.1°C 85% 2.4 mph SW3.9 kmh SW 3.4 mph5.5 kmh 30.35 in1027.8 mb 0.00 in0.0 mm 0.00 in0.0 mm 0.00 in0.0 mm
10:00 PM 38.3°F3.5°C 34.5°F1.4°C 86% 2.3 mph SW3.7 kmh SW 4.2 mph6.8 kmh 30.35 in1027.8 mb 0.00 in0.0 mm 0.00 in0.0 mm 0.00 in0.0 mm
10:10 PM 38.3°F3.5°C 34.5°F1.4°C 86% 2.1 mph SW3.4 kmh SW 3.4 mph5.5 kmh 30.35 in1027.8 mb 0.00 in0.0 mm 0.00 in0.0 mm 0.00 in0.0 mm
10:20 PM 38.3°F3.5°C 34.5°F1.4°C 86% 2.3 mph SW3.7 kmh SW 2.5 mph4.0 kmh 30.35 in1027.8 mb 0.00 in0.0 mm 0.00 in0.0 mm 0.00 in0.0 mm
10:30 PM 38.3°F3.5°C 34.5°F1.4°C 86% 1.7 mph SSW2.7 kmh SSW 2.5 mph4.0 kmh 30.35 in1027.8 mb 0.00 in0.0 mm 0.00 in0.0 mm 0.00 in0.0 mm
10:40 PM 38.3°F3.5°C 34.5°F1.4°C 86% 2.4 mph SW3.9 kmh SW 4.2 mph6.8 kmh 30.35 in1027.8 mb 0.00 in0.0 mm 0.00 in0.0 mm 0.00 in0.0 mm
10:50 PM 38.3°F3.5°C 34.5°F1.4°C 86% 2.6 mph SW4.2 kmh SW 3.4 mph5.5 kmh 30.35 in1027.8 mb 0.00 in0.0 mm 0.00 in0.0 mm 0.00 in0.0 mm
11:00 PM 38.5°F3.6°C 34.7°F1.5°C 86% 3.6 mph SW5.8 kmh SW 4.2 mph6.8 kmh 30.35 in1027.8 mb 0.00 in0.0 mm 0.00 in0.0 mm 0.00 in0.0 mm
11:10 PM 38.5°F3.6°C 34.7°F1.5°C 86% 1.9 mph SW3.1 kmh SW 3.4 mph5.5 kmh 30.35 in1027.8 mb 0.00 in0.0 mm 0.00 in0.0 mm 0.00 in0.0 mm
11:20 PM 38.7°F3.7°C 34.8°F1.6°C 86% 3.6 mph WSW5.8 kmh WSW 4.2 mph6.8 kmh 30.35 in1027.8 mb 0.00 in0.0 mm 0.00 in0.0 mm 0.00 in0.0 mm
11:30 PM 38.7°F3.7°C 35.1°F1.7°C 87% 3.7 mph SW6.0 kmh SW 3.4 mph5.5 kmh 30.35 in1027.8 mb 0.00 in0.0 mm 0.00 in0.0 mm 0.00 in0.0 mm
11:40 PM 38.7°F3.7°C 35.1°F1.7°C 87% 3.9 mph SW6.3 kmh SW 4.2 mph6.8 kmh 30.35 in1027.8 mb 0.00 in0.0 mm 0.00 in0.0 mm 0.00 in0.0 mm
11:50 PM 38.8°F3.8°C 35.3°F1.8°C 87% 3.2 mph SW5.1 kmh SW 4.2 mph6.8 kmh 30.35 in1027.8 mb 0.00 in0.0 mm 0.00 in0.0 mm 0.00 in0.0 mm